sensor_id;sensor_type;location;lat;lon;timestamp;pressure;altitude;pressure_sealevel;temperature;humidity
60417;BME280;46263;44.726;10.396;2023-02-28T00:01:06;101064.38;;;8.17;59.83
60417;BME280;46263;44.726;10.396;2023-02-28T00:03:31;101065.06;;;8.12;59.74
60417;BME280;46263;44.726;10.396;2023-02-28T00:06:04;101074.94;;;8.13;60.07
60417;BME280;46263;44.726;10.396;2023-02-28T00:08:30;101067.66;;;8.15;59.62
60417;BME280;46263;44.726;10.396;2023-02-28T00:10:55;101069.69;;;8.15;59.51
60417;BME280;46263;44.726;10.396;2023-02-28T00:13:21;101068.41;;;8.16;59.90
60417;BME280;46263;44.726;10.396;2023-02-28T00:15:46;101071.66;;;8.14;60.37
60417;BME280;46263;44.726;10.396;2023-02-28T00:18:12;101075.69;;;8.13;60.33
60417;BME280;46263;44.726;10.396;2023-02-28T00:20:38;101089.16;;;8.15;60.21
60417;BME280;46263;44.726;10.396;2023-02-28T00:23:04;101084.03;;;8.13;60.22
60417;BME280;46263;44.726;10.396;2023-02-28T00:25:30;101073.50;;;8.17;60.37
60417;BME280;46263;44.726;10.396;2023-02-28T00:27:55;101084.53;;;8.12;59.68
60417;BME280;46263;44.726;10.396;2023-02-28T00:30:21;101086.06;;;8.13;60.41
60417;BME280;46263;44.726;10.396;2023-02-28T00:32:48;101084.53;;;8.12;60.30
60417;BME280;46263;44.726;10.396;2023-02-28T00:35:14;101083.84;;;8.17;60.04
60417;BME280;46263;44.726;10.396;2023-02-28T00:37:39;101093.91;;;8.14;60.24
60417;BME280;46263;44.726;10.396;2023-02-28T00:40:06;101092.88;;;8.12;60.38
60417;BME280;46263;44.726;10.396;2023-02-28T00:42:32;101084.25;;;8.10;59.99
60417;BME280;46263;44.726;10.396;2023-02-28T00:44:58;101084.88;;;7.99;60.57
60417;BME280;46263;44.726;10.396;2023-02-28T00:47:23;101092.28;;;8.02;60.90
60417;BME280;46263;44.726;10.396;2023-02-28T00:49:49;101094.56;;;8.04;60.93
60417;BME280;46263;44.726;10.396;2023-02-28T00:52:14;101089.63;;;7.93;60.90
60417;BME280;46263;44.726;10.396;2023-02-28T00:54:40;101094.19;;;7.96;61.10
60417;BME280;46263;44.726;10.396;2023-02-28T00:57:05;101098.25;;;7.95;60.89
60417;BME280;46263;44.726;10.396;2023-02-28T00:59:30;101096.50;;;7.98;61.33
60417;BME280;46263;44.726;10.396;2023-02-28T01:01:56;101093.81;;;8.03;61.13
60417;BME280;46263;44.726;10.396;2023-02-28T01:04:21;101087.47;;;8.03;61.38
60417;BME280;46263;44.726;10.396;2023-02-28T01:06:47;101093.03;;;8.03;61.11
60417;BME280;46263;44.726;10.396;2023-02-28T01:09:12;101089.22;;;8.00;61.34
60417;BME280;46263;44.726;10.396;2023-02-28T01:11:38;101098.38;;;8.06;61.16
60417;BME280;46263;44.726;10.396;2023-02-28T01:14:04;101096.78;;;8.00;61.12
60417;BME280;46263;44.726;10.396;2023-02-28T01:16:30;101098.81;;;7.99;61.50
60417;BME280;46263;44.726;10.396;2023-02-28T01:18:55;101093.03;;;8.03;61.04
60417;BME280;46263;44.726;10.396;2023-02-28T01:21:21;101094.56;;;8.04;61.57
60417;BME280;46263;44.726;10.396;2023-02-28T01:23:47;101094.84;;;8.06;60.65
60417;BME280;46263;44.726;10.396;2023-02-28T01:26:22;101088.03;;;8.07;60.93
60417;BME280;46263;44.726;10.396;2023-02-28T01:28:49;101092.31;;;8.08;61.11
60417;BME280;46263;44.726;10.396;2023-02-28T01:31:15;101088.50;;;8.05;61.32
60417;BME280;46263;44.726;10.396;2023-02-28T01:33:40;101094.00;;;8.00;61.27
60417;BME280;46263;44.726;10.396;2023-02-28T01:36:12;101086.97;;;8.04;61.21
60417;BME280;46263;44.726;10.396;2023-02-28T01:38:37;101087.47;;;8.03;61.36
60417;BME280;46263;44.726;10.396;2023-02-28T01:41:04;101092.53;;;8.04;60.61
60417;BME280;46263;44.726;10.396;2023-02-28T01:46:15;101086.50;;;8.06;61.17
60417;BME280;46263;44.726;10.396;2023-02-28T01:48:58;101081.91;;;8.03;61.06
60417;BME280;46263;44.726;10.396;2023-02-28T01:51:44;101082.69;;;8.03;60.44
60417;BME280;46263;44.726;10.396;2023-02-28T01:54:15;101080.34;;;8.02;60.90
60417;BME280;46263;44.726;10.396;2023-02-28T01:56:55;101088.25;;;8.03;60.64
60417;BME280;46263;44.726;10.396;2023-02-28T01:59:27;101084.19;;;8.04;60.29
60417;BME280;46263;44.726;10.396;2023-02-28T02:01:54;101084.41;;;8.01;60.08
60417;BME280;46263;44.726;10.396;2023-02-28T02:04:21;101080.16;;;8.05;60.34
60417;BME280;46263;44.726;10.396;2023-02-28T02:06:48;101073.34;;;8.06;60.24
60417;BME280;46263;44.726;10.396;2023-02-28T02:09:14;101078.63;;;8.04;59.91
60417;BME280;46263;44.726;10.396;2023-02-28T02:11:42;101076.91;;;8.07;58.64
60417;BME280;46263;44.726;10.396;2023-02-28T02:17:20;101080.66;;;8.04;58.93
60417;BME280;46263;44.726;10.396;2023-02-28T02:28:48;101066.44;;;8.02;57.46
60417;BME280;46263;44.726;10.396;2023-02-28T02:37:11;101079.13;;;8.03;58.18
60417;BME280;46263;44.726;10.396;2023-02-28T02:39:52;101079.81;;;7.98;58.21
60417;BME280;46263;44.726;10.396;2023-02-28T02:42:33;101081.34;;;7.99;57.64
60417;BME280;46263;44.726;10.396;2023-02-28T02:45:42;101084.41;;;8.01;58.03
60417;BME280;46263;44.726;10.396;2023-02-28T02:48:13;101083.84;;;7.97;58.33
60417;BME280;46263;44.726;10.396;2023-02-28T02:50:46;101088.91;;;7.98;58.03
60417;BME280;46263;44.726;10.396;2023-02-28T02:53:14;101089.97;;;8.01;58.87
60417;BME280;46263;44.726;10.396;2023-02-28T02:55:44;101088.91;;;7.98;58.06
60417;BME280;46263;44.726;10.396;2023-02-28T02:58:15;101087.66;;;7.99;56.02
60417;BME280;46263;44.726;10.396;2023-02-28T03:00:48;101084.34;;;7.95;56.53
60417;BME280;46263;44.726;10.396;2023-02-28T03:03:15;101086.34;;;7.95;57.50
60417;BME280;46263;44.726;10.396;2023-02-28T03:05:48;101086.06;;;7.93;57.25
60417;BME280;46263;44.726;10.396;2023-02-28T03:08:14;101085.81;;;7.91;56.25
60417;BME280;46263;44.726;10.396;2023-02-28T03:18:34;101086.41;;;7.81;54.52
60417;BME280;46263;44.726;10.396;2023-02-28T03:24:27;101086.81;;;7.74;54.98
60417;BME280;46263;44.726;10.396;2023-02-28T03:26:58;101080.00;;;7.75;54.34
60417;BME280;46263;44.726;10.396;2023-02-28T03:29:40;101087.59;;;7.74;54.46
60417;BME280;46263;44.726;10.396;2023-02-28T03:32:17;101088.06;;;7.73;53.66
60417;BME280;46263;44.726;10.396;2023-02-28T03:34:54;101087.59;;;7.74;53.03
60417;BME280;46263;44.726;10.396;2023-02-28T03:37:22;101082.78;;;7.75;53.28
60417;BME280;46263;44.726;10.396;2023-02-28T03:39:57;101091.34;;;7.71;53.68
60417;BME280;46263;44.726;10.396;2023-02-28T03:42:28;101090.97;;;7.64;53.79
60417;BME280;46263;44.726;10.396;2023-02-28T03:45:17;101090.97;;;7.64;53.57
60417;BME280;46263;44.726;10.396;2023-02-28T03:47:50;101088.78;;;7.68;53.81
60417;BME280;46263;44.726;10.396;2023-02-28T03:50:42;101089.06;;;7.70;54.22
60417;BME280;46263;44.726;10.396;2023-02-28T03:53:19;101093.09;;;7.69;54.69
60417;BME280;46263;44.726;10.396;2023-02-28T03:55:57;101096.41;;;7.73;55.14
60417;BME280;46263;44.726;10.396;2023-02-28T03:58:41;101093.16;;;7.74;53.31
60417;BME280;46263;44.726;10.396;2023-02-28T04:03:39;101099.63;;;7.66;54.36
60417;BME280;46263;44.726;10.396;2023-02-28T04:06:07;101094.97;;;7.57;54.46
60417;BME280;46263;44.726;10.396;2023-02-28T04:08:34;101095.78;;;7.63;54.62
60417;BME280;46263;44.726;10.396;2023-02-28T04:11:08;101094.84;;;7.66;54.15
60417;BME280;46263;44.726;10.396;2023-02-28T04:13:37;101092.06;;;7.66;52.95
60417;BME280;46263;44.726;10.396;2023-02-28T04:16:06;101094.75;;;7.61;53.42
60417;BME280;46263;44.726;10.396;2023-02-28T04:18:37;101093.00;;;7.63;52.96
60417;BME280;46263;44.726;10.396;2023-02-28T04:21:03;101092.63;;;7.56;54.87
60417;BME280;46263;44.726;10.396;2023-02-28T04:23:32;101101.06;;;7.61;53.13
60417;BME280;46263;44.726;10.396;2023-02-28T04:25:58;101105.66;;;7.64;52.88
60417;BME280;46263;44.726;10.396;2023-02-28T04:28:24;101109.69;;;7.63;52.45
60417;BME280;46263;44.726;10.396;2023-02-28T04:31:01;101110.75;;;7.66;52.99
60417;BME280;46263;44.726;10.396;2023-02-28T04:33:27;101103.44;;;7.68;53.71
60417;BME280;46263;44.726;10.396;2023-02-28T04:36:01;101107.75;;;7.69;52.47
60417;BME280;46263;44.726;10.396;2023-02-28T04:38:29;101111.78;;;7.68;51.55
60417;BME280;46263;44.726;10.396;2023-02-28T04:40:57;101106.91;;;7.63;52.18
60417;BME280;46263;44.726;10.396;2023-02-28T04:43:22;101105.75;;;7.70;52.94
60417;BME280;46263;44.726;10.396;2023-02-28T04:45:48;101111.31;;;7.70;52.69
60417;BME280;46263;44.726;10.396;2023-02-28T04:48:13;101107.75;;;7.69;51.93
60417;BME280;46263;44.726;10.396;2023-02-28T04:50:38;101122.66;;;7.66;52.17
60417;BME280;46263;44.726;10.396;2023-02-28T04:53:04;101110.81;;;7.71;53.46
60417;BME280;46263;44.726;10.396;2023-02-28T04:55:29;101116.38;;;7.71;53.44
60417;BME280;46263;44.726;10.396;2023-02-28T04:57:55;101118.88;;;7.69;54.31
60417;BME280;46263;44.726;10.396;2023-02-28T05:00:20;101113.53;;;7.66;54.10
60417;BME280;46263;44.726;10.396;2023-02-28T05:02:46;101111.78;;;7.68;54.22
60417;BME280;46263;44.726;10.396;2023-02-28T05:05:11;101119.56;;;7.64;53.04
60417;BME280;46263;44.726;10.396;2023-02-28T05:07:44;101109.41;;;7.61;53.08
60417;BME280;46263;44.726;10.396;2023-02-28T05:10:10;101115.25;;;7.63;53.24
60417;BME280;46263;44.726;10.396;2023-02-28T05:12:35;101119.88;;;7.66;53.85
60417;BME280;46263;44.726;10.396;2023-02-28T05:15:01;101118.78;;;7.64;53.24
60417;BME280;46263;44.726;10.396;2023-02-28T05:17:27;101116.78;;;7.64;53.71
60417;BME280;46263;44.726;10.396;2023-02-28T05:19:53;101115.84;;;7.67;53.36
60417;BME280;46263;44.726;10.396;2023-02-28T05:22:18;101121.66;;;7.69;53.90
60417;BME280;46263;44.726;10.396;2023-02-28T05:24:44;101114.97;;;7.61;53.32
60417;BME280;46263;44.726;10.396;2023-02-28T05:27:10;101119.56;;;7.64;53.18
60417;BME280;46263;44.726;10.396;2023-02-28T05:29:35;101125.88;;;7.65;53.85
60417;BME280;46263;44.726;10.396;2023-02-28T05:32:11;101122.56;;;7.61;54.32
60417;BME280;46263;44.726;10.396;2023-02-28T05:34:41;101126.38;;;7.63;54.46
60417;BME280;46263;44.726;10.396;2023-02-28T05:37:11;101118.34;;;7.65;53.91
60417;BME280;46263;44.726;10.396;2023-02-28T05:39:37;101118.75;;;7.58;53.87
60417;BME280;46263;44.726;10.396;2023-02-28T05:42:02;101119.69;;;7.55;54.37
60417;BME280;46263;44.726;10.396;2023-02-28T05:44:28;101122.47;;;7.55;54.13
60417;BME280;46263;44.726;10.396;2023-02-28T05:46:54;101129.66;;;7.62;54.72
60417;BME280;46263;44.726;10.396;2023-02-28T05:49:19;101126.88;;;7.62;54.51
60417;BME280;46263;44.726;10.396;2023-02-28T05:51:45;101121.78;;;7.60;53.74
60417;BME280;46263;44.726;10.396;2023-02-28T05:54:10;101128.13;;;7.61;54.60
60417;BME280;46263;44.726;10.396;2023-02-28T05:56:35;101129.66;;;7.62;54.35
60417;BME280;46263;44.726;10.396;2023-02-28T05:59:04;101126.88;;;7.62;53.82
60417;BME280;46263;44.726;10.396;2023-02-28T06:01:55;101135.97;;;7.62;54.47
60417;BME280;46263;44.726;10.396;2023-02-28T06:04:21;101141.00;;;7.58;55.03
60417;BME280;46263;44.726;10.396;2023-02-28T06:06:47;101133.72;;;7.46;55.33
60417;BME280;46263;44.726;10.396;2023-02-28T06:09:13;101134.00;;;7.48;55.24
60417;BME280;46263;44.726;10.396;2023-02-28T06:11:39;101143.59;;;7.47;55.33
60417;BME280;46263;44.726;10.396;2023-02-28T06:14:05;101139.06;;;7.50;55.89
60417;BME280;46263;44.726;10.396;2023-02-28T06:16:32;101155.75;;;7.50;56.03
60417;BME280;46263;44.726;10.396;2023-02-28T06:18:58;101155.00;;;7.49;56.99
60417;BME280;46263;44.726;10.396;2023-02-28T06:21:24;101160.56;;;7.49;57.50
60417;BME280;46263;44.726;10.396;2023-02-28T06:23:50;101166.31;;;7.46;58.86
60417;BME280;46263;44.726;10.396;2023-02-28T06:26:16;101162.88;;;7.36;59.42
60417;BME280;46263;44.726;10.396;2023-02-28T06:28:42;101171.22;;;7.36;60.14
60417;BME280;46263;44.726;10.396;2023-02-28T06:31:08;101183.00;;;7.31;60.77
60417;BME280;46263;44.726;10.396;2023-02-28T06:33:35;101179.09;;;7.23;61.46
60417;BME280;46263;44.726;10.396;2023-02-28T06:36:01;101179.00;;;7.18;61.79
60417;BME280;46263;44.726;10.396;2023-02-28T06:38:27;101183.81;;;7.17;62.43
60417;BME280;46263;44.726;10.396;2023-02-28T06:40:57;101186.09;;;7.19;61.45
60417;BME280;46263;44.726;10.396;2023-02-28T06:43:24;101182.06;;;7.20;62.15
60417;BME280;46263;44.726;10.396;2023-02-28T06:45:50;101174.22;;;7.18;62.58
60417;BME280;46263;44.726;10.396;2023-02-28T06:48:16;101177.25;;;7.20;62.42
60417;BME280;46263;44.726;10.396;2023-02-28T06:50:42;101184.84;;;7.20;61.61
60417;BME280;46263;44.726;10.396;2023-02-28T06:53:07;101185.34;;;7.18;61.96
60417;BME280;46263;44.726;10.396;2023-02-28T06:55:33;101180.25;;;7.17;62.16
60417;BME280;46263;44.726;10.396;2023-02-28T06:57:58;101179.00;;;7.18;62.15
60417;BME280;46263;44.726;10.396;2023-02-28T07:00:25;101185.34;;;7.18;62.57
60417;BME280;46263;44.726;10.396;2023-02-28T07:02:50;101183.41;;;7.24;64.57
60417;BME280;46263;44.726;10.396;2023-02-28T07:05:19;101187.03;;;7.30;64.54
60417;BME280;46263;44.726;10.396;2023-02-28T07:07:44;101185.41;;;7.24;62.49
60417;BME280;46263;44.726;10.396;2023-02-28T07:10:12;101191.25;;;7.26;62.26
60417;BME280;46263;44.726;10.396;2023-02-28T07:12:38;101196.22;;;7.36;63.53
60417;BME280;46263;44.726;10.396;2023-02-28T07:15:04;101197.38;;;7.44;63.28
60417;BME280;46263;44.726;10.396;2023-02-28T07:17:30;101203.03;;;7.50;63.17
60417;BME280;46263;44.726;10.396;2023-02-28T07:19:56;101197.47;;;7.50;62.40
60417;BME280;46263;44.726;10.396;2023-02-28T07:22:21;101196.97;;;7.51;61.20
60417;BME280;46263;44.726;10.396;2023-02-28T07:24:47;101199.97;;;7.48;61.47
60417;BME280;46263;44.726;10.396;2023-02-28T07:27:12;101202.53;;;7.51;63.13
60417;BME280;46263;44.726;10.396;2023-02-28T07:29:49;101196.31;;;7.56;62.08
60417;BME280;46263;44.726;10.396;2023-02-28T07:32:14;101200.06;;;7.53;62.17
60417;BME280;46263;44.726;10.396;2023-02-28T07:34:39;101200.34;;;7.55;62.54
60417;BME280;46263;44.726;10.396;2023-02-28T07:37:05;101201.59;;;7.54;62.85
60417;BME280;46263;44.726;10.396;2023-02-28T07:39:30;101205.22;;;7.60;61.72
60417;BME280;46263;44.726;10.396;2023-02-28T07:41:56;101200.91;;;7.59;61.43
60417;BME280;46263;44.726;10.396;2023-02-28T07:44:21;101205.22;;;7.60;61.08
60417;BME280;46263;44.726;10.396;2023-02-28T07:46:47;101205.50;;;7.48;60.95
60417;BME280;46263;44.726;10.396;2023-02-28T07:49:12;101211.75;;;7.43;61.12
60417;BME280;46263;44.726;10.396;2023-02-28T07:51:38;101212.34;;;7.32;62.09
60417;BME280;46263;44.726;10.396;2023-02-28T07:54:03;101216.09;;;7.29;62.24
60417;BME280;46263;44.726;10.396;2023-02-28T07:56:29;101213.31;;;7.29;62.26
60417;BME280;46263;44.726;10.396;2023-02-28T07:58:54;101218.28;;;7.11;62.93
60417;BME280;46263;44.726;10.396;2023-02-28T08:01:20;101221.47;;;7.18;62.92
60417;BME280;46263;44.726;10.396;2023-02-28T08:03:45;101224.25;;;7.18;63.46
60417;BME280;46263;44.726;10.396;2023-02-28T08:06:22;101219.94;;;7.17;63.06
60417;BME280;46263;44.726;10.396;2023-02-28T08:08:48;101218.69;;;7.18;63.15
60417;BME280;46263;44.726;10.396;2023-02-28T08:11:14;101223.75;;;7.06;63.94
60417;BME280;46263;44.726;10.396;2023-02-28T08:13:40;101225.28;;;7.07;63.53
60417;BME280;46263;44.726;10.396;2023-02-28T08:16:07;101225.66;;;7.00;63.53
60417;BME280;46263;44.726;10.396;2023-02-28T08:18:33;101223.16;;;7.16;63.51
60417;BME280;46263;44.726;10.396;2023-02-28T08:20:58;101226.25;;;7.18;63.90
60417;BME280;46263;44.726;10.396;2023-02-28T08:23:24;101222.88;;;7.28;63.50
60417;BME280;46263;44.726;10.396;2023-02-28T08:25:54;101233.63;;;7.35;63.83
60417;BME280;46263;44.726;10.396;2023-02-28T08:28:20;101230.94;;;7.41;63.38
60417;BME280;46263;44.726;10.396;2023-02-28T08:30:45;101224.22;;;7.47;63.88
60417;BME280;46263;44.726;10.396;2023-02-28T08:33:11;101233.63;;;7.50;63.75
60417;BME280;46263;44.726;10.396;2023-02-28T08:35:36;101238.41;;;7.35;63.69
60417;BME280;46263;44.726;10.396;2023-02-28T08:38:02;101236.53;;;7.26;63.46
60417;BME280;46263;44.726;10.396;2023-02-28T08:40:28;101227.19;;;7.29;64.75
60417;BME280;46263;44.726;10.396;2023-02-28T08:42:53;101234.38;;;7.21;64.20
60417;BME280;46263;44.726;10.396;2023-02-28T08:45:19;101239.09;;;7.30;66.79
60417;BME280;46263;44.726;10.396;2023-02-28T08:47:44;101240.16;;;7.32;64.10
60417;BME280;46263;44.726;10.396;2023-02-28T08:50:10;101232.28;;;7.45;64.88
60417;BME280;46263;44.726;10.396;2023-02-28T08:52:36;101238.69;;;7.51;63.62
60417;BME280;46263;44.726;10.396;2023-02-28T08:55:01;101231.97;;;7.58;62.35
60417;BME280;46263;44.726;10.396;2023-02-28T08:57:27;101236.41;;;7.64;63.04
60417;BME280;46263;44.726;10.396;2023-02-28T08:59:52;101235.34;;;7.62;61.92
60417;BME280;46263;44.726;10.396;2023-02-28T09:02:18;101234.94;;;7.69;62.23
60417;BME280;46263;44.726;10.396;2023-02-28T09:04:44;101235.16;;;7.51;62.61
60417;BME280;46263;44.726;10.396;2023-02-28T09:07:12;101239.19;;;7.64;63.11
60417;BME280;46263;44.726;10.396;2023-02-28T09:09:38;101243.41;;;7.45;62.17
60417;BME280;46263;44.726;10.396;2023-02-28T09:12:22;101241.19;;;7.20;63.14
60417;BME280;46263;44.726;10.396;2023-02-28T09:14:47;101247.06;;;7.37;63.79
60417;BME280;46263;44.726;10.396;2023-02-28T09:17:13;101250.69;;;7.57;63.89
60417;BME280;46263;44.726;10.396;2023-02-28T09:19:38;101255.47;;;7.71;62.30
60417;BME280;46263;44.726;10.396;2023-02-28T09:22:03;101251.34;;;7.81;61.58
60417;BME280;46263;44.726;10.396;2023-02-28T09:24:29;101260.03;;;7.88;64.21
60417;BME280;46263;44.726;10.396;2023-02-28T09:26:56;101254.28;;;7.92;61.04
60417;BME280;46263;44.726;10.396;2023-02-28T09:29:22;101258.19;;;8.00;61.37
60417;BME280;46263;44.726;10.396;2023-02-28T09:31:48;101257.75;;;7.87;60.43
60417;BME280;46263;44.726;10.396;2023-02-28T09:34:13;101254.00;;;7.90;59.88
60417;BME280;46263;44.726;10.396;2023-02-28T09:36:39;101257.44;;;7.99;60.30
60417;BME280;46263;44.726;10.396;2023-02-28T09:39:04;101257.53;;;8.05;60.02
60417;BME280;46263;44.726;10.396;2023-02-28T09:41:42;101259.59;;;8.10;59.48
60417;BME280;46263;44.726;10.396;2023-02-28T09:44:30;101260.59;;;8.07;59.06
60417;BME280;46263;44.726;10.396;2023-02-28T09:47:00;101260.78;;;8.18;58.98
60417;BME280;46263;44.726;10.396;2023-02-28T09:49:37;101257.88;;;8.12;59.45
60417;BME280;46263;44.726;10.396;2023-02-28T09:52:07;101265.69;;;7.94;57.87
60417;BME280;46263;44.726;10.396;2023-02-28T09:54:35;101261.06;;;8.05;58.77
60417;BME280;46263;44.726;10.396;2023-02-28T10:04:53;101260.94;;;8.29;58.29
60417;BME280;46263;44.726;10.396;2023-02-28T10:10:03;101255.31;;;8.43;58.33
60417;BME280;46263;44.726;10.396;2023-02-28T10:12:31;101248.22;;;8.42;57.09
60417;BME280;46263;44.726;10.396;2023-02-28T10:14:59;101252.03;;;8.45;58.30
60417;BME280;46263;44.726;10.396;2023-02-28T10:17:39;101264.59;;;8.55;57.51
60417;BME280;46263;44.726;10.396;2023-02-28T10:20:14;101255.81;;;8.62;58.02
60417;BME280;46263;44.726;10.396;2023-02-28T10:23:01;101260.81;;;8.58;58.22
60417;BME280;46263;44.726;10.396;2023-02-28T10:25:33;101249.75;;;8.63;57.18
60417;BME280;46263;44.726;10.396;2023-02-28T10:28:15;101260.75;;;8.72;55.79
60417;BME280;46263;44.726;10.396;2023-02-28T10:30:47;101263.47;;;8.67;57.78
60417;BME280;46263;44.726;10.396;2023-02-28T10:35:44;101251.13;;;8.73;57.86
60417;BME280;46263;44.726;10.396;2023-02-28T10:38:17;101257.47;;;8.73;55.42
60417;BME280;46263;44.726;10.396;2023-02-28T10:40:42;101251.88;;;8.73;54.84
60417;BME280;46263;44.726;10.396;2023-02-28T10:45:53;101257.16;;;8.91;55.33
60417;BME280;46263;44.726;10.396;2023-02-28T10:58:53;101251.44;;;9.00;55.33
60417;BME280;46263;44.726;10.396;2023-02-28T11:03:53;101245.72;;;9.09;54.87
60417;BME280;46263;44.726;10.396;2023-02-28T11:06:22;101249.53;;;9.12;54.57
60417;BME280;46263;44.726;10.396;2023-02-28T11:09:04;101251.34;;;9.15;54.39
60417;BME280;46263;44.726;10.396;2023-02-28T11:11:43;101244.56;;;9.21;53.45
60417;BME280;46263;44.726;10.396;2023-02-28T11:14:21;101243.31;;;9.22;53.37
60417;BME280;46263;44.726;10.396;2023-02-28T11:16:48;101236.47;;;9.23;53.73
60417;BME280;46263;44.726;10.396;2023-02-28T11:19:24;101227.06;;;9.21;53.46
60417;BME280;46263;44.726;10.396;2023-02-28T11:21:57;101231.41;;;9.22;54.26
60417;BME280;46263;44.726;10.396;2023-02-28T11:24:37;101232.72;;;9.26;54.30
60417;BME280;46263;44.726;10.396;2023-02-28T11:27:24;101227.13;;;9.26;53.15
60417;BME280;46263;44.726;10.396;2023-02-28T11:29:49;101216.50;;;9.30;54.65
60417;BME280;46263;44.726;10.396;2023-02-28T11:32:20;101229.25;;;9.37;55.22
60417;BME280;46263;44.726;10.396;2023-02-28T11:35:04;101216.25;;;9.28;54.85
60417;BME280;46263;44.726;10.396;2023-02-28T11:37:39;101222.09;;;9.30;54.27
60417;BME280;46263;44.726;10.396;2023-02-28T11:40:12;101215.09;;;9.40;54.04
60417;BME280;46263;44.726;10.396;2023-02-28T11:53:26;101201.69;;;9.44;55.69
60417;BME280;46263;44.726;10.396;2023-02-28T11:55:54;101200.22;;;9.49;53.57
60417;BME280;46263;44.726;10.396;2023-02-28T12:04:24;101185.28;;;9.57;52.27
60417;BME280;46263;44.726;10.396;2023-02-28T12:09:44;101173.94;;;9.66;53.61
60417;BME280;46263;44.726;10.396;2023-02-28T12:20:41;101162.69;;;9.55;50.89
60417;BME280;46263;44.726;10.396;2023-02-28T12:25:47;101151.94;;;9.43;51.27
60417;BME280;46263;44.726;10.396;2023-02-28T12:28:19;101141.38;;;9.52;50.71
60417;BME280;46263;44.726;10.396;2023-02-28T12:30:54;101142.47;;;9.65;51.13
60417;BME280;46263;44.726;10.396;2023-02-28T12:33:26;101131.81;;;9.64;50.65
60417;BME280;46263;44.726;10.396;2023-02-28T12:35:58;101128.56;;;9.71;50.53
60417;BME280;46263;44.726;10.396;2023-02-28T12:41:04;101121.00;;;9.77;51.04
60417;BME280;46263;44.726;10.396;2023-02-28T12:43:36;101107.28;;;9.79;51.17
60417;BME280;46263;44.726;10.396;2023-02-28T12:46:10;101103.91;;;9.64;51.23
60417;BME280;46263;44.726;10.396;2023-02-28T12:48:46;101113.88;;;9.76;52.04
60417;BME280;46263;44.726;10.396;2023-02-28T12:51:12;101116.44;;;9.79;51.28
60417;BME280;46263;44.726;10.396;2023-02-28T12:56:43;101109.41;;;9.95;51.53
60417;BME280;46263;44.726;10.396;2023-02-28T12:59:41;101109.41;;;9.95;51.97
60417;BME280;46263;44.726;10.396;2023-02-28T13:11:47;101096.13;;;9.79;53.60
60417;BME280;46263;44.726;10.396;2023-02-28T13:14:29;101088.81;;;9.40;53.19
60417;BME280;46263;44.726;10.396;2023-02-28T13:22:37;101092.94;;;9.19;54.62
60417;BME280;46263;44.726;10.396;2023-02-28T13:27:54;101090.03;;;9.33;54.21
60417;BME280;46263;44.726;10.396;2023-02-28T13:35:45;101070.03;;;9.40;53.81
60417;BME280;46263;44.726;10.396;2023-02-28T13:38:33;101071.88;;;9.49;53.10
60417;BME280;46263;44.726;10.396;2023-02-28T13:44:06;101067.44;;;9.73;54.31
60417;BME280;46263;44.726;10.396;2023-02-28T13:46:34;101061.34;;;9.69;52.88
60417;BME280;46263;44.726;10.396;2023-02-28T13:52:18;101051.28;;;9.41;53.34
60417;BME280;46263;44.726;10.396;2023-02-28T14:00:44;101055.56;;;9.42;53.66
60417;BME280;46263;44.726;10.396;2023-02-28T14:03:37;101052.66;;;9.61;53.95
60417;BME280;46263;44.726;10.396;2023-02-28T14:09:02;101042.84;;;9.77;53.29
60417;BME280;46263;44.726;10.396;2023-02-28T14:11:35;101039.88;;;9.97;56.40
60417;BME280;46263;44.726;10.396;2023-02-28T14:14:02;101034.88;;;10.12;53.30
60417;BME280;46263;44.726;10.396;2023-02-28T14:16:48;101037.22;;;10.30;55.05
60417;BME280;46263;44.726;10.396;2023-02-28T14:19:30;101032.88;;;10.18;52.94
60417;BME280;46263;44.726;10.396;2023-02-28T14:24:59;101037.66;;;10.01;50.96
60417;BME280;46263;44.726;10.396;2023-02-28T14:27:47;101027.91;;;9.85;52.38
60417;BME280;46263;44.726;10.396;2023-02-28T14:33:22;101020.88;;;10.06;52.38
60417;BME280;46263;44.726;10.396;2023-02-28T14:38:42;101015.91;;;10.37;52.32
60417;BME280;46263;44.726;10.396;2023-02-28T14:41:21;101013.88;;;10.49;51.42
60417;BME280;46263;44.726;10.396;2023-02-28T14:43:53;101007.28;;;10.52;52.16
60417;BME280;46263;44.726;10.396;2023-02-28T14:46:19;101015.66;;;10.46;51.78
60417;BME280;46263;44.726;10.396;2023-02-28T14:48:48;101010.09;;;10.57;52.10
60417;BME280;46263;44.726;10.396;2023-02-28T14:51:19;101012.88;;;10.57;51.80
60417;BME280;46263;44.726;10.396;2023-02-28T14:53:49;101012.59;;;10.33;51.88
60417;BME280;46263;44.726;10.396;2023-02-28T14:56:22;101016.38;;;10.25;52.51
60417;BME280;46263;44.726;10.396;2023-02-28T14:58:53;101011.56;;;10.26;52.52
60417;BME280;46263;44.726;10.396;2023-02-28T15:01:20;101022.47;;;10.24;51.86
60417;BME280;46263;44.726;10.396;2023-02-28T15:03:47;101006.72;;;10.26;51.84
60417;BME280;46263;44.726;10.396;2023-02-28T15:06:16;101004.34;;;9.92;52.61
60417;BME280;46263;44.726;10.396;2023-02-28T15:08:44;101005.34;;;9.94;53.32
60417;BME280;46263;44.726;10.396;2023-02-28T15:11:17;101015.69;;;9.77;53.20
60417;BME280;46263;44.726;10.396;2023-02-28T15:13:52;101013.13;;;9.68;53.27
60417;BME280;46263;44.726;10.396;2023-02-28T15:16:22;101018.13;;;9.53;53.94
60417;BME280;46263;44.726;10.396;2023-02-28T15:18:58;101010.84;;;9.67;53.40
60417;BME280;46263;44.726;10.396;2023-02-28T15:21:31;100997.38;;;9.65;53.14
60417;BME280;46263;44.726;10.396;2023-02-28T15:26:39;100993.38;;;9.77;52.95
60417;BME280;46263;44.726;10.396;2023-02-28T15:29:19;100991.59;;;9.80;52.98
60417;BME280;46263;44.726;10.396;2023-02-28T15:31:49;100995.13;;;9.75;53.14